Jurupa, California
Current Conditions -  °F | °C
As of 10:53 AM on Friday 28 Nov 2014 (Local Time) from KRAL Reporting Station
Clear Clear  
Wind Chill: 72°   Ceiling: Unl
Heat Index: 72°   Visibility: 10mi
Dew Point: 29°   Wind: 3mph
Humidity: 20%   Direction: 240°WSW
Pressure: 30"   Gusts: NA
Location:  34.0033°N, 117.446°W
Report Text: KRAL 281853Z 24003KT 10SM CLR 22/M02 A3000 RMK AO2 SLP145 T02221017
Loading
Personal Weather Stations






























Interactive Weather Map New forecast layout! Learn more

10-Day Weather Forecast

Advertisements
Track Severe Weather on mobile